createdAt,value
2023-04-18T00:00:02.603Z,7.45
2023-04-18T00:01:14.988Z,7.45
2023-04-18T00:02:20.721Z,7.45
2023-04-18T00:03:23.300Z,7.45
2023-04-18T00:04:26.295Z,7.45
2023-04-18T00:05:29.773Z,7.44
2023-04-18T00:06:32.559Z,7.46
2023-04-18T00:07:35.705Z,7.46
2023-04-18T00:08:38.007Z,7.46
2023-04-18T00:09:40.748Z,7.46
2023-04-18T00:10:43.108Z,7.46
2023-04-18T00:11:45.585Z,7.47
2023-04-18T00:12:47.841Z,7.46
2023-04-18T00:13:50.052Z,7.47
2023-04-18T00:14:52.371Z,7.46
2023-04-18T00:15:55.312Z,7.47
2023-04-18T00:16:57.699Z,7.48
2023-04-18T00:18:03.795Z,7.47
2023-04-18T00:19:06.398Z,7.48
2023-04-18T00:20:13.057Z,7.48
2023-04-18T00:21:17.520Z,7.47
2023-04-18T00:22:22.636Z,7.48
2023-04-18T00:23:28.274Z,7.48
2023-04-18T00:24:30.663Z,7.48
2023-04-18T00:25:32.955Z,7.49
2023-04-18T00:26:35.188Z,7.49
2023-04-18T00:27:41.707Z,7.50
2023-04-18T00:28:43.981Z,7.50
2023-04-18T00:29:47.390Z,7.49
2023-04-18T00:30:51.836Z,7.51
2023-04-18T00:31:54.097Z,7.50
2023-04-18T00:32:56.995Z,7.50
2023-04-18T00:34:00.166Z,7.50
2023-04-18T00:35:02.509Z,7.51
2023-04-18T00:36:05.273Z,7.52
2023-04-18T00:37:07.855Z,7.52
2023-04-18T00:38:10.151Z,7.52
2023-04-18T00:39:12.559Z,7.52
2023-04-18T00:40:16.692Z,7.53
2023-04-18T00:41:20.186Z,7.53
2023-04-18T00:42:22.667Z,7.53
2023-04-18T00:43:25.028Z,7.54
2023-04-18T00:44:27.276Z,7.54
2023-04-18T00:45:29.595Z,7.54
2023-04-18T00:46:32.582Z,7.55
2023-04-18T00:47:34.892Z,7.55
2023-04-18T00:48:39.313Z,7.55
2023-04-18T00:49:41.682Z,7.55
2023-04-18T00:50:44.119Z,7.56
2023-04-18T00:51:46.990Z,7.57
2023-04-18T00:52:49.682Z,7.58
2023-04-18T00:53:52.320Z,7.58
2023-04-18T00:54:55.836Z,7.58
2023-04-18T00:55:58.168Z,7.59
2023-04-18T00:57:01.005Z,7.60
2023-04-18T00:58:03.288Z,7.60
2023-04-18T00:59:07.561Z,7.61
2023-04-18T01:00:10.583Z,7.60
2023-04-18T01:01:13.629Z,7.62
2023-04-18T01:02:16.033Z,7.61
2023-04-18T01:03:18.605Z,7.61
2023-04-18T01:04:21.823Z,7.63
2023-04-18T01:05:24.946Z,7.62
2023-04-18T01:06:27.438Z,7.62
2023-04-18T01:07:31.373Z,7.64
2023-04-18T01:08:33.942Z,7.64
2023-04-18T01:09:37.094Z,7.64
2023-04-18T01:10:39.355Z,7.65
2023-04-18T01:11:41.641Z,7.65
2023-04-18T01:12:44.869Z,7.65
2023-04-18T01:14:07.508Z,7.66
2023-04-18T01:15:12.177Z,7.68
2023-04-18T01:16:14.473Z,7.67
2023-04-18T01:17:17.676Z,7.68
2023-04-18T01:18:21.037Z,7.68
2023-04-18T01:19:23.360Z,7.69
2023-04-18T01:20:26.556Z,7.69
2023-04-18T01:21:31.532Z,7.69
2023-04-18T01:22:34.212Z,7.70
2023-04-18T01:23:36.636Z,7.70
2023-04-18T01:24:39.595Z,7.70
2023-04-18T01:25:42.829Z,7.71
2023-04-18T01:26:49.303Z,7.70
2023-04-18T01:27:51.792Z,7.70
2023-04-18T01:28:54.129Z,7.71
2023-04-18T01:29:56.431Z,7.71
2023-04-18T01:30:59.206Z,7.70
2023-04-18T01:32:02.810Z,7.71
2023-04-18T01:33:05.864Z,7.71
2023-04-18T01:34:08.597Z,7.71
2023-04-18T01:35:11.301Z,7.71
2023-04-18T01:36:13.604Z,7.72
2023-04-18T01:37:15.858Z,7.72
2023-04-18T01:38:18.154Z,7.72
2023-04-18T01:39:20.481Z,7.72
2023-04-18T01:40:23.351Z,7.73
2023-04-18T01:41:25.872Z,7.73
2023-04-18T01:42:28.133Z,7.73
2023-04-18T01:43:30.416Z,7.72
2023-04-18T01:44:32.641Z,7.75
2023-04-18T01:45:34.872Z,7.74
2023-04-18T01:46:37.391Z,7.74
2023-04-18T01:47:39.931Z,7.74
2023-04-18T01:48:42.532Z,7.75
2023-04-18T01:49:48.333Z,7.73
2023-04-18T01:50:50.892Z,7.73
2023-04-18T01:51:53.175Z,7.75
2023-04-18T01:52:57.069Z,7.75
2023-04-18T01:53:59.332Z,7.76
2023-04-18T01:55:04.518Z,7.73
2023-04-18T01:56:06.974Z,7.75
2023-04-18T01:57:10.517Z,7.74
2023-04-18T01:58:13.632Z,7.75
2023-04-18T01:59:15.865Z,7.73
2023-04-18T02:00:18.571Z,7.75
2023-04-18T02:01:20.938Z,7.75
2023-04-18T02:02:23.535Z,7.75
2023-04-18T02:03:27.528Z,7.75
2023-04-18T02:04:29.958Z,7.75
2023-04-18T02:05:32.226Z,7.75
2023-04-18T02:06:35.010Z,7.75
2023-04-18T02:07:37.330Z,7.75
2023-04-18T02:08:39.565Z,7.76
2023-04-18T02:09:41.974Z,7.77
2023-04-18T02:10:46.667Z,7.76
2023-04-18T02:11:48.967Z,7.75
2023-04-18T02:12:51.308Z,7.76
2023-04-18T02:13:53.693Z,7.75
2023-04-18T02:14:56.093Z,7.75
2023-04-18T02:15:58.345Z,7.75
2023-04-18T02:17:01.110Z,7.76
2023-04-18T02:18:03.590Z,7.74
2023-04-18T02:19:06.603Z,7.74
2023-04-18T02:20:11.023Z,7.72
2023-04-18T02:21:13.363Z,7.72
2023-04-18T02:22:15.840Z,7.72
2023-04-18T02:23:18.503Z,7.73
2023-04-18T02:24:20.792Z,7.71
2023-04-18T02:25:24.402Z,7.69
2023-04-18T02:26:26.623Z,7.71
2023-04-18T02:27:33.029Z,7.70
2023-04-18T02:28:35.348Z,7.70
2023-04-18T02:29:38.887Z,7.70
2023-04-18T02:30:41.231Z,7.69
2023-04-18T02:31:43.510Z,7.70
2023-04-18T02:32:45.933Z,7.69
2023-04-18T02:33:48.668Z,7.69
2023-04-18T02:34:50.980Z,7.71
2023-04-18T02:35:53.271Z,7.70
2023-04-18T02:36:55.583Z,7.69
2023-04-18T02:37:57.800Z,7.69
2023-04-18T02:39:00.481Z,7.69
2023-04-18T02:40:05.073Z,7.68
2023-04-18T02:41:08.048Z,7.68
2023-04-18T02:42:10.338Z,7.68
2023-04-18T02:43:12.663Z,7.68
2023-04-18T02:44:15.124Z,7.67
2023-04-18T02:45:17.876Z,7.66
2023-04-18T02:46:20.165Z,7.67
2023-04-18T02:47:24.167Z,7.64
2023-04-18T02:48:26.503Z,7.65
2023-04-18T02:49:29.030Z,7.64
2023-04-18T02:50:32.222Z,7.63
2023-04-18T02:51:34.558Z,7.62
2023-04-18T02:52:37.225Z,7.62
2023-04-18T02:53:39.585Z,7.62
2023-04-18T02:54:42.096Z,7.60
2023-04-18T02:55:49.338Z,7.60
2023-04-18T02:56:55.324Z,7.59
2023-04-18T02:58:01.223Z,7.60
2023-04-18T02:59:29.090Z,7.59
2023-04-18T03:00:47.078Z,7.58
2023-04-18T03:02:05.862Z,7.58
2023-04-18T03:03:10.619Z,7.55
2023-04-18T03:04:26.011Z,7.55
2023-04-18T03:05:32.929Z,7.54
2023-04-18T03:06:38.817Z,7.53
2023-04-18T03:07:43.912Z,7.52
2023-04-18T03:08:46.254Z,7.52
2023-04-18T03:09:49.139Z,7.51
2023-04-18T03:11:01.062Z,7.49
2023-04-18T03:12:05.777Z,7.49
2023-04-18T03:13:09.730Z,7.50
2023-04-18T03:14:12.485Z,7.48
2023-04-18T03:15:21.261Z,7.47
2023-04-18T03:16:24.163Z,7.47
2023-04-18T03:17:26.620Z,7.47
2023-04-18T03:18:28.907Z,7.47
2023-04-18T03:19:34.711Z,7.45
2023-04-18T03:20:41.610Z,7.44
2023-04-18T03:21:43.938Z,7.44
2023-04-18T03:22:47.441Z,7.45
2023-04-18T03:23:53.449Z,7.43
2023-04-18T03:24:57.994Z,7.43
2023-04-18T03:26:15.146Z,7.42
2023-04-18T03:27:19.765Z,7.42
2023-04-18T03:28:22.951Z,7.42
2023-04-18T03:29:25.622Z,7.42
2023-04-18T03:30:28.357Z,7.40
2023-04-18T03:31:33.761Z,7.40
2023-04-18T03:32:36.647Z,7.40
2023-04-18T03:33:39.423Z,7.37
2023-04-18T03:34:45.475Z,7.38
2023-04-18T03:35:47.788Z,7.38
2023-04-18T03:36:50.128Z,7.37
2023-04-18T03:37:52.826Z,7.36
2023-04-18T03:39:01.132Z,7.38
2023-04-18T03:40:05.524Z,7.35
2023-04-18T03:41:07.920Z,7.35
2023-04-18T03:42:12.364Z,7.35
2023-04-18T03:43:16.340Z,7.35
2023-04-18T03:44:18.644Z,7.34
2023-04-18T03:45:21.272Z,7.33
2023-04-18T03:46:24.774Z,7.33
2023-04-18T03:47:32.119Z,7.31
2023-04-18T03:48:37.439Z,7.29
2023-04-18T03:49:44.051Z,7.30
2023-04-18T03:50:46.921Z,7.29
2023-04-18T03:51:50.481Z,7.27
2023-04-18T03:52:53.542Z,7.28
2023-04-18T03:53:55.805Z,7.27
2023-04-18T03:54:59.224Z,7.26
2023-04-18T03:56:08.154Z,7.24
2023-04-18T03:57:30.653Z,7.23
2023-04-18T03:58:33.383Z,7.23
2023-04-18T03:59:36.098Z,7.23
2023-04-18T04:00:38.424Z,7.22
2023-04-18T04:01:44.181Z,7.23
2023-04-18T04:02:46.558Z,7.21
2023-04-18T04:03:55.099Z,7.22
2023-04-18T04:04:58.082Z,7.19
2023-04-18T04:06:01.184Z,7.19
2023-04-18T04:07:03.680Z,7.19
2023-04-18T04:08:06.195Z,7.17
2023-04-18T04:09:09.518Z,7.16
2023-04-18T04:10:11.896Z,7.17
2023-04-18T04:11:14.184Z,7.16
2023-04-18T04:12:16.682Z,7.16
2023-04-18T04:13:19.296Z,7.15
2023-04-18T04:14:22.909Z,7.14
2023-04-18T04:15:25.167Z,7.13
2023-04-18T04:16:33.518Z,7.13
2023-04-18T04:17:36.215Z,7.13
2023-04-18T04:18:38.848Z,7.11
2023-04-18T04:19:41.143Z,7.12
2023-04-18T04:20:50.573Z,7.13
2023-04-18T04:22:05.714Z,7.11
2023-04-18T04:23:08.612Z,7.12
2023-04-18T04:24:13.905Z,7.12
2023-04-18T04:25:20.379Z,7.11
2023-04-18T04:26:23.880Z,7.11
2023-04-18T04:27:36.876Z,7.11
2023-04-18T04:28:43.138Z,7.11
2023-04-18T04:29:46.260Z,7.09
2023-04-18T04:30:51.327Z,7.10
2023-04-18T04:31:53.700Z,7.10
2023-04-18T04:33:04.643Z,7.07
2023-04-18T04:34:07.256Z,7.06
2023-04-18T04:35:10.015Z,7.08
2023-04-18T04:36:16.706Z,7.06
2023-04-18T04:37:21.025Z,7.04
2023-04-18T04:38:46.095Z,7.03
2023-04-18T04:39:48.750Z,7.02
2023-04-18T04:41:08.012Z,7.01
2023-04-18T04:42:12.368Z,6.99
2023-04-18T04:43:25.698Z,7.00
2023-04-18T04:44:31.572Z,6.99
2023-04-18T04:45:34.564Z,6.97
2023-04-18T04:46:40.419Z,6.95
2023-04-18T04:47:50.759Z,6.95
2023-04-18T04:48:54.630Z,6.95
2023-04-18T04:49:56.927Z,6.94
2023-04-18T04:51:01.247Z,6.93
2023-04-18T04:52:04.960Z,6.94
2023-04-18T04:53:08.734Z,6.94
2023-04-18T04:54:12.743Z,6.93
2023-04-18T04:55:17.607Z,6.94
2023-04-18T04:56:23.216Z,6.93
2023-04-18T04:57:25.777Z,6.92
2023-04-18T04:58:30.038Z,6.91
2023-04-18T04:59:44.978Z,6.91
2023-04-18T05:00:48.082Z,6.89
2023-04-18T05:01:51.717Z,6.89
2023-04-18T05:02:56.293Z,6.88
2023-04-18T05:04:00.854Z,6.88
2023-04-18T05:05:03.305Z,6.86
2023-04-18T05:06:06.018Z,6.86
2023-04-18T05:07:08.289Z,6.86
2023-04-18T05:08:10.608Z,6.84
2023-04-18T05:09:15.768Z,6.83
2023-04-18T05:10:19.444Z,6.83
2023-04-18T05:11:22.088Z,6.83
2023-04-18T05:12:24.413Z,6.83
2023-04-18T05:13:26.647Z,6.82
2023-04-18T05:14:29.260Z,6.82
2023-04-18T05:15:31.903Z,6.81
2023-04-18T05:16:36.052Z,6.79
2023-04-18T05:17:38.457Z,6.79
2023-04-18T05:18:41.603Z,6.79
2023-04-18T05:19:44.408Z,6.79
2023-04-18T05:20:46.681Z,6.77
2023-04-18T05:21:53.442Z,6.77
2023-04-18T05:22:55.747Z,6.76
2023-04-18T05:23:58.011Z,6.76
2023-04-18T05:25:00.398Z,6.75
2023-04-18T05:26:06.654Z,6.73
2023-04-18T05:27:08.995Z,6.73
2023-04-18T05:28:11.241Z,6.73
2023-04-18T05:29:14.251Z,6.72
2023-04-18T05:30:16.782Z,6.72
2023-04-18T05:31:19.082Z,6.71
2023-04-18T05:32:21.747Z,6.71
2023-04-18T05:33:24.105Z,6.70
2023-04-18T05:34:26.477Z,6.71
2023-04-18T05:35:29.122Z,6.70
2023-04-18T05:36:32.529Z,6.68
2023-04-18T05:37:35.958Z,6.68
2023-04-18T05:38:39.317Z,6.68
2023-04-18T05:39:42.050Z,6.68
2023-04-18T05:40:44.446Z,6.68
2023-04-18T05:41:47.037Z,6.68
2023-04-18T05:42:49.325Z,6.67
2023-04-18T05:44:02.408Z,6.67
2023-04-18T05:45:08.450Z,6.68
2023-04-18T05:46:12.662Z,6.67
2023-04-18T05:47:15.040Z,6.66
2023-04-18T05:48:17.389Z,6.66
2023-04-18T05:49:21.294Z,6.64
2023-04-18T05:50:24.050Z,6.66
2023-04-18T05:51:26.922Z,6.65
2023-04-18T05:52:29.516Z,6.66
2023-04-18T05:53:31.866Z,6.65
2023-04-18T05:54:34.117Z,6.65
2023-04-18T05:55:36.796Z,6.65
2023-04-18T05:56:39.178Z,6.66
2023-04-18T05:57:41.748Z,6.63
2023-04-18T05:58:45.743Z,6.63
2023-04-18T05:59:48.207Z,6.62
2023-04-18T06:00:50.466Z,6.62
2023-04-18T06:01:53.190Z,6.61
2023-04-18T06:02:55.545Z,6.61
2023-04-18T06:03:58.879Z,6.61
2023-04-18T06:05:01.699Z,6.60
2023-04-18T06:06:04.324Z,6.59
2023-04-18T06:07:06.649Z,6.59
2023-04-18T06:08:09.103Z,6.56
2023-04-18T06:09:12.746Z,6.55
2023-04-18T06:10:15.942Z,6.53
2023-04-18T06:11:20.329Z,6.53
2023-04-18T06:12:22.656Z,6.53
2023-04-18T06:13:24.981Z,6.51
2023-04-18T06:14:27.915Z,6.51
2023-04-18T06:15:30.235Z,6.49
2023-04-18T06:16:33.856Z,6.51
2023-04-18T06:17:36.244Z,6.49
2023-04-18T06:18:39.157Z,6.48
2023-04-18T06:19:41.447Z,6.46
2023-04-18T06:20:45.486Z,6.46
2023-04-18T06:21:48.999Z,6.45
2023-04-18T06:22:51.240Z,6.46
2023-04-18T06:23:53.553Z,6.45
2023-04-18T06:24:56.615Z,6.45
2023-04-18T06:25:59.563Z,6.46
2023-04-18T06:27:02.091Z,6.44
2023-04-18T06:28:05.942Z,6.45
2023-04-18T06:29:08.291Z,6.44
2023-04-18T06:30:11.290Z,6.43
2023-04-18T06:31:14.740Z,6.43
2023-04-18T06:32:17.451Z,6.43
2023-04-18T06:33:21.510Z,6.43
2023-04-18T06:34:27.864Z,6.42
2023-04-18T06:35:31.478Z,6.42
2023-04-18T06:36:37.283Z,6.41
2023-04-18T06:37:42.620Z,6.42
2023-04-18T06:38:45.359Z,6.40
2023-04-18T06:39:47.762Z,6.40
2023-04-18T06:40:50.072Z,6.38
2023-04-18T06:41:52.369Z,6.39
2023-04-18T06:43:03.359Z,6.40
2023-04-18T06:44:07.067Z,6.39
2023-04-18T06:45:12.839Z,6.37
2023-04-18T06:46:15.204Z,6.37
2023-04-18T06:47:17.709Z,6.37
2023-04-18T06:48:20.001Z,6.37
2023-04-18T06:49:26.348Z,6.37
2023-04-18T06:50:29.480Z,6.37
2023-04-18T06:51:32.013Z,6.37
2023-04-18T06:52:35.949Z,6.38
2023-04-18T06:53:38.327Z,6.37
2023-04-18T06:54:41.151Z,6.38
2023-04-18T06:55:43.548Z,6.38
2023-04-18T06:56:46.338Z,6.38
2023-04-18T06:57:48.599Z,6.38
2023-04-18T06:58:53.092Z,6.40
2023-04-18T06:59:55.486Z,6.40
2023-04-18T07:00:57.899Z,6.40
2023-04-18T07:02:00.627Z,6.41
2023-04-18T07:03:11.431Z,6.42
2023-04-18T07:04:14.626Z,6.43
2023-04-18T07:05:19.036Z,6.45
2023-04-18T07:06:21.933Z,6.45
2023-04-18T07:07:24.713Z,6.47
2023-04-18T07:08:27.024Z,6.47
2023-04-18T07:09:29.532Z,6.49
2023-04-18T07:10:32.387Z,6.47
2023-04-18T07:11:34.903Z,6.48
2023-04-18T07:12:38.643Z,6.49
2023-04-18T07:13:40.930Z,6.51
2023-04-18T07:14:43.249Z,6.52
2023-04-18T07:15:45.630Z,6.53
2023-04-18T07:16:47.938Z,6.53
2023-04-18T07:17:50.286Z,6.54
2023-04-18T07:18:52.540Z,6.55
2023-04-18T07:19:55.180Z,6.56
2023-04-18T07:20:58.018Z,6.56
2023-04-18T07:22:00.878Z,6.57
2023-04-18T07:23:03.280Z,6.60
2023-04-18T07:24:05.725Z,6.60
2023-04-18T07:25:11.100Z,6.59
2023-04-18T07:26:13.912Z,6.60
2023-04-18T07:27:16.732Z,6.61
2023-04-18T07:28:19.161Z,6.63
2023-04-18T07:29:21.502Z,6.64
2023-04-18T07:30:24.248Z,6.66
2023-04-18T07:31:28.702Z,6.68
2023-04-18T07:32:31.785Z,6.68
2023-04-18T07:33:35.491Z,6.68
2023-04-18T07:34:37.916Z,6.69
2023-04-18T07:35:40.752Z,6.68
2023-04-18T07:36:43.007Z,6.70
2023-04-18T07:37:46.005Z,6.70
2023-04-18T07:38:49.663Z,6.71
2023-04-18T07:39:52.940Z,6.70
2023-04-18T07:40:59.710Z,6.70
2023-04-18T07:42:05.256Z,6.71
2023-04-18T07:43:07.652Z,6.73
2023-04-18T07:44:09.971Z,6.72
2023-04-18T07:45:12.191Z,6.72
2023-04-18T07:46:14.652Z,6.73
2023-04-18T07:47:17.359Z,6.72
2023-04-18T07:48:22.872Z,6.72
2023-04-18T07:49:25.164Z,6.71
2023-04-18T07:50:30.517Z,6.72
2023-04-18T07:51:32.868Z,6.72
2023-04-18T07:52:36.325Z,6.72
2023-04-18T07:53:41.292Z,6.72
2023-04-18T07:54:43.897Z,6.72
2023-04-18T07:55:48.479Z,6.72
2023-04-18T07:56:54.187Z,6.72
2023-04-18T07:57:58.730Z,6.72
2023-04-18T07:59:02.000Z,6.73
2023-04-18T08:00:05.090Z,6.73
2023-04-18T08:01:18.570Z,6.73
2023-04-18T08:02:21.821Z,6.75
2023-04-18T08:03:24.545Z,6.75
2023-04-18T08:04:28.360Z,6.74
2023-04-18T08:05:32.477Z,6.76
2023-04-18T08:06:36.638Z,6.77
2023-04-18T08:07:40.048Z,6.77
2023-04-18T08:08:44.151Z,6.78
2023-04-18T08:09:46.659Z,6.79
2023-04-18T08:10:49.686Z,6.80
2023-04-18T08:11:52.060Z,6.81
2023-04-18T08:12:55.152Z,6.81
2023-04-18T08:14:01.337Z,6.81
2023-04-18T08:15:04.514Z,6.83
2023-04-18T08:16:08.973Z,6.83
2023-04-18T08:17:11.245Z,6.84
2023-04-18T08:18:14.003Z,6.85
2023-04-18T08:19:16.616Z,6.87
2023-04-18T08:20:19.131Z,6.87
2023-04-18T08:21:22.159Z,6.88
2023-04-18T08:22:24.422Z,6.91
2023-04-18T08:23:26.856Z,6.92
2023-04-18T08:24:30.082Z,6.93
2023-04-18T08:25:35.618Z,6.94
2023-04-18T08:26:38.652Z,6.95
2023-04-18T08:27:41.157Z,6.96
2023-04-18T08:28:46.570Z,6.98
2023-04-18T08:29:50.635Z,7.00
2023-04-18T08:30:56.068Z,7.01
2023-04-18T08:32:01.755Z,7.03
2023-04-18T08:33:04.136Z,7.04
2023-04-18T08:34:07.915Z,7.06
2023-04-18T08:35:10.517Z,7.07
2023-04-18T08:36:13.164Z,7.10
2023-04-18T08:37:16.485Z,7.11
2023-04-18T08:38:19.420Z,7.13
2023-04-18T08:39:23.186Z,7.14
2023-04-18T08:40:27.150Z,7.16
2023-04-18T08:41:35.971Z,7.18
2023-04-18T08:42:38.808Z,7.19
2023-04-18T08:43:41.054Z,7.22
2023-04-18T08:44:43.496Z,7.23
2023-04-18T08:45:46.088Z,7.26
2023-04-18T08:46:49.581Z,7.27
2023-04-18T08:47:52.729Z,7.30
2023-04-18T08:48:58.753Z,7.33
2023-04-18T08:50:01.825Z,7.34
2023-04-18T08:51:05.187Z,7.36
2023-04-18T08:52:13.622Z,7.37
2023-04-18T08:53:17.888Z,7.39
2023-04-18T08:54:22.679Z,7.42
2023-04-18T08:55:26.028Z,7.44
2023-04-18T08:56:29.597Z,7.47
2023-04-18T08:57:33.635Z,7.48
2023-04-18T08:58:35.933Z,7.49
2023-04-18T08:59:38.821Z,7.51
2023-04-18T09:00:41.842Z,7.53
2023-04-18T09:01:56.652Z,7.56
2023-04-18T09:03:00.201Z,7.58
2023-04-18T09:04:03.191Z,7.59
2023-04-18T09:05:14.508Z,7.60
2023-04-18T09:06:22.017Z,7.63
2023-04-18T09:07:30.089Z,7.65
2023-04-18T09:08:32.323Z,7.68
2023-04-18T09:09:51.109Z,7.71
2023-04-18T09:10:53.773Z,7.72
2023-04-18T09:12:10.196Z,7.73
2023-04-18T09:13:12.669Z,7.76
2023-04-18T09:14:26.514Z,7.79
2023-04-18T09:15:31.004Z,7.80
2023-04-18T09:16:47.219Z,7.82
2023-04-18T09:17:54.535Z,7.85
2023-04-18T09:19:15.052Z,7.86
2023-04-18T09:20:35.771Z,7.88
2023-04-18T09:21:47.950Z,7.89
2023-04-18T09:22:57.894Z,7.92
2023-04-18T09:24:17.815Z,7.94
2023-04-18T09:25:36.133Z,7.96
2023-04-18T09:26:39.572Z,7.98
2023-04-18T09:27:42.122Z,7.99
2023-04-18T09:28:53.929Z,8.01
2023-04-18T09:29:58.009Z,8.01
2023-04-18T09:31:13.169Z,8.05
2023-04-18T09:32:27.308Z,8.07
2023-04-18T09:33:35.588Z,8.08
2023-04-18T09:34:42.734Z,8.09
2023-04-18T09:35:45.535Z,8.10
2023-04-18T09:37:04.842Z,8.12
2023-04-18T09:38:08.178Z,8.13
2023-04-18T09:39:25.878Z,8.15
2023-04-18T09:40:29.918Z,8.16
2023-04-18T09:41:32.852Z,8.17
2023-04-18T09:42:38.298Z,8.19
2023-04-18T09:43:40.779Z,8.22
2023-04-18T09:45:06.120Z,8.22
2023-04-18T09:46:09.668Z,8.23
2023-04-18T09:47:11.949Z,8.25
2023-04-18T09:48:14.270Z,8.26
2023-04-18T09:49:17.801Z,8.26
2023-04-18T09:50:21.125Z,8.27
2023-04-18T09:51:23.525Z,8.28
2023-04-18T09:52:26.274Z,8.28
2023-04-18T09:53:29.603Z,8.29
2023-04-18T09:54:33.202Z,8.29
2023-04-18T09:55:36.252Z,8.28
2023-04-18T09:56:42.939Z,8.30
2023-04-18T09:57:47.661Z,8.29
2023-04-18T09:58:56.578Z,8.29
2023-04-18T10:00:04.341Z,8.29
2023-04-18T10:01:08.671Z,8.28
2023-04-18T10:02:19.775Z,8.30
2023-04-18T10:03:26.678Z,8.29
2023-04-18T10:04:31.141Z,8.30
2023-04-18T10:05:36.108Z,8.29
2023-04-18T10:06:42.182Z,8.29
2023-04-18T10:07:46.574Z,8.28
2023-04-18T10:08:50.570Z,8.28
2023-04-18T10:09:53.813Z,8.27
2023-04-18T10:10:59.090Z,8.28
2023-04-18T10:12:02.883Z,8.27
2023-04-18T10:13:07.340Z,8.27
2023-04-18T10:14:13.339Z,8.28
2023-04-18T10:15:18.060Z,8.28
2023-04-18T10:16:20.989Z,8.28
2023-04-18T10:17:23.934Z,8.28
2023-04-18T10:18:26.388Z,8.29
2023-04-18T10:19:30.259Z,8.28
2023-04-18T10:20:35.129Z,8.29
2023-04-18T10:21:38.295Z,8.28
2023-04-18T10:22:40.600Z,8.28
2023-04-18T10:23:42.862Z,8.27
2023-04-18T10:24:54.743Z,8.27
2023-04-18T10:25:57.243Z,8.28
2023-04-18T10:26:59.466Z,8.27
2023-04-18T10:28:02.812Z,8.28
2023-04-18T10:29:05.173Z,8.30
2023-04-18T10:30:09.170Z,8.28
2023-04-18T10:31:13.153Z,8.29
2023-04-18T10:32:16.536Z,8.28
2023-04-18T10:33:33.789Z,8.28
2023-04-18T10:34:37.789Z,8.29
2023-04-18T10:35:59.484Z,8.29
2023-04-18T10:37:06.050Z,8.29
2023-04-18T10:38:16.824Z,8.28
2023-04-18T10:39:23.884Z,8.30
2023-04-18T10:40:34.468Z,8.30
2023-04-18T10:41:49.479Z,8.30
2023-04-18T10:42:52.864Z,8.29
2023-04-18T10:44:10.520Z,8.32
2023-04-18T10:45:26.959Z,8.31
2023-04-18T10:46:32.857Z,8.32
2023-04-18T10:47:35.513Z,8.34
2023-04-18T10:48:39.384Z,8.33
2023-04-18T10:49:53.882Z,8.35
2023-04-18T10:51:16.352Z,8.35
2023-04-18T10:52:19.055Z,8.35
2023-04-18T10:53:21.430Z,8.36
2023-04-18T10:54:47.617Z,8.36
2023-04-18T10:55:55.379Z,8.37
2023-04-18T10:56:59.936Z,8.38
2023-04-18T10:58:03.533Z,8.38
2023-04-18T10:59:06.593Z,8.39
2023-04-18T11:00:14.597Z,8.39
2023-04-18T11:01:24.820Z,8.41
2023-04-18T11:02:31.068Z,8.41
2023-04-18T11:03:34.576Z,8.42
2023-04-18T11:04:38.123Z,8.43
2023-04-18T11:05:40.744Z,8.44
2023-04-18T11:06:50.566Z,8.44
2023-04-18T11:07:53.780Z,8.46
2023-04-18T11:09:13.845Z,8.46
2023-04-18T11:10:25.637Z,8.48
2023-04-18T11:11:27.983Z,8.49
2023-04-18T11:12:35.805Z,8.49
2023-04-18T11:13:54.816Z,8.50
2023-04-18T11:14:57.222Z,8.49
2023-04-18T11:15:59.685Z,8.51
2023-04-18T11:17:19.446Z,8.52
2023-04-18T11:18:21.804Z,8.52
2023-04-18T11:19:26.029Z,8.51
2023-04-18T11:20:31.249Z,8.52
2023-04-18T11:21:33.586Z,8.53
2023-04-18T11:22:49.947Z,8.52
2023-04-18T11:23:52.316Z,8.54
2023-04-18T11:25:01.176Z,8.54
2023-04-18T11:26:03.559Z,8.52
2023-04-18T11:27:08.556Z,8.54
2023-04-18T11:28:13.755Z,8.54
2023-04-18T11:29:19.565Z,8.54
2023-04-18T11:30:22.192Z,8.54
2023-04-18T11:31:25.395Z,8.54
2023-04-18T11:32:27.864Z,8.54
2023-04-18T11:33:31.539Z,8.55
2023-04-18T11:34:34.202Z,8.55
2023-04-18T11:35:44.464Z,8.55
2023-04-18T11:36:51.315Z,8.56
2023-04-18T11:37:54.574Z,8.57
2023-04-18T11:38:56.924Z,8.57
2023-04-18T11:39:59.481Z,8.58
2023-04-18T11:41:04.976Z,8.59
2023-04-18T11:42:07.282Z,8.59
2023-04-18T11:43:09.702Z,8.59
2023-04-18T11:44:12.181Z,8.60
2023-04-18T11:45:16.060Z,8.60
2023-04-18T11:46:18.503Z,8.60
2023-04-18T11:47:28.983Z,8.61
2023-04-18T11:48:41.950Z,8.62
2023-04-18T11:49:44.331Z,8.63
2023-04-18T11:50:46.659Z,8.64
2023-04-18T11:51:48.884Z,8.65
2023-04-18T11:52:52.425Z,8.65
2023-04-18T11:53:57.088Z,8.66
2023-04-18T11:55:25.193Z,8.67
2023-04-18T11:56:27.545Z,8.69
2023-04-18T11:57:30.585Z,8.68
2023-04-18T11:58:34.838Z,8.69
2023-04-18T11:59:38.416Z,8.71
2023-04-18T12:00:43.775Z,8.71
2023-04-18T12:01:46.236Z,8.72
2023-04-18T12:02:51.599Z,8.74
2023-04-18T12:04:08.107Z,8.73
2023-04-18T12:05:15.459Z,8.75
2023-04-18T12:06:18.032Z,8.76
2023-04-18T12:07:41.041Z,8.75
2023-04-18T12:08:43.484Z,8.76
2023-04-18T12:09:45.810Z,8.77
2023-04-18T12:10:52.477Z,8.77
2023-04-18T12:12:03.086Z,8.78
2023-04-18T12:13:09.060Z,8.80
2023-04-18T12:14:22.048Z,8.80
2023-04-18T12:15:29.705Z,8.81
2023-04-18T12:16:33.640Z,8.81
2023-04-18T12:17:38.206Z,8.82
2023-04-18T12:18:42.357Z,8.82
2023-04-18T12:19:49.235Z,8.84
2023-04-18T12:20:54.593Z,8.83
2023-04-18T12:22:01.775Z,8.86
2023-04-18T12:23:04.764Z,8.86
2023-04-18T12:24:16.009Z,8.86
2023-04-18T12:25:27.145Z,8.87
2023-04-18T12:26:29.808Z,8.88
2023-04-18T12:27:55.205Z,8.87
2023-04-18T12:29:01.260Z,8.89
2023-04-18T12:30:04.236Z,8.88
2023-04-18T12:31:08.543Z,8.88
2023-04-18T12:32:10.818Z,8.90
2023-04-18T12:33:14.280Z,8.89
2023-04-18T12:34:16.529Z,8.90
2023-04-18T12:35:20.244Z,8.88
2023-04-18T12:36:23.618Z,8.88
2023-04-18T12:37:27.513Z,8.88
2023-04-18T12:38:29.796Z,8.87
2023-04-18T12:39:32.057Z,8.88
2023-04-18T12:40:34.344Z,8.88
2023-04-18T12:41:36.887Z,8.87
2023-04-18T12:42:41.037Z,8.88
2023-04-18T12:43:43.339Z,8.87
2023-04-18T12:44:47.621Z,8.85
2023-04-18T12:45:50.892Z,8.85
2023-04-18T12:46:53.367Z,8.87
2023-04-18T12:47:56.968Z,8.86
2023-04-18T12:49:00.565Z,8.86
2023-04-18T12:50:03.150Z,8.86
2023-04-18T12:51:07.419Z,8.86
2023-04-18T12:52:09.721Z,8.86
2023-04-18T12:53:13.462Z,8.86
2023-04-18T12:54:16.000Z,8.87
2023-04-18T12:55:18.511Z,8.87
2023-04-18T12:56:21.453Z,8.87
2023-04-18T12:57:27.447Z,8.87
2023-04-18T12:58:29.779Z,8.87
2023-04-18T12:59:32.414Z,8.89
2023-04-18T13:00:35.275Z,8.87
2023-04-18T13:01:37.655Z,8.87
2023-04-18T13:02:42.787Z,8.87
2023-04-18T13:03:48.589Z,8.89
2023-04-18T13:04:56.895Z,8.88
2023-04-18T13:05:59.224Z,8.87
2023-04-18T13:07:01.618Z,8.87
2023-04-18T13:08:16.246Z,8.88
2023-04-18T13:09:19.821Z,8.88
2023-04-18T13:10:25.415Z,8.89
2023-04-18T13:11:29.250Z,8.90
2023-04-18T13:12:31.538Z,8.90
2023-04-18T13:13:35.187Z,8.91
2023-04-18T13:14:38.752Z,8.91
2023-04-18T13:15:41.465Z,8.91
2023-04-18T13:16:44.161Z,8.91
2023-04-18T13:17:47.497Z,8.91
2023-04-18T13:18:49.808Z,8.92
2023-04-18T13:19:52.186Z,8.93
2023-04-18T13:20:54.473Z,8.93
2023-04-18T13:21:57.265Z,8.94
2023-04-18T13:22:59.543Z,8.95
2023-04-18T13:24:01.856Z,8.95
2023-04-18T13:25:04.500Z,8.95
2023-04-18T13:26:08.598Z,8.95
2023-04-18T13:27:10.852Z,8.95
2023-04-18T13:28:13.098Z,8.96
2023-04-18T13:29:15.626Z,8.96
2023-04-18T13:30:18.844Z,8.95
2023-04-18T13:31:21.562Z,8.97
2023-04-18T13:32:24.333Z,8.97
2023-04-18T13:33:26.635Z,8.96
2023-04-18T13:34:29.918Z,8.97
2023-04-18T13:35:32.253Z,8.98
2023-04-18T13:36:35.216Z,8.97
2023-04-18T13:37:38.431Z,8.98
2023-04-18T13:38:40.804Z,8.98
2023-04-18T13:39:43.271Z,8.99
2023-04-18T13:40:46.602Z,8.99
2023-04-18T13:41:49.080Z,8.99
2023-04-18T13:42:51.714Z,8.99
2023-04-18T13:43:53.990Z,8.99
2023-04-18T13:44:58.091Z,9.00
2023-04-18T13:46:00.678Z,9.00
2023-04-18T13:47:04.332Z,9.00
2023-04-18T13:48:06.999Z,9.00
2023-04-18T13:49:09.339Z,9.00
2023-04-18T13:50:11.946Z,9.00
2023-04-18T13:51:14.246Z,9.01
2023-04-18T13:52:17.729Z,9.01
2023-04-18T13:53:21.129Z,9.00
2023-04-18T13:54:26.807Z,9.00
2023-04-18T13:55:29.106Z,9.01
2023-04-18T13:56:31.569Z,9.01
2023-04-18T13:57:34.528Z,9.01
2023-04-18T13:58:36.874Z,9.01
2023-04-18T13:59:40.733Z,9.00
2023-04-18T14:00:43.113Z,9.00
2023-04-18T14:01:45.562Z,9.00
2023-04-18T14:02:48.056Z,8.98
2023-04-18T14:03:50.828Z,8.97
2023-04-18T14:04:55.085Z,8.97
2023-04-18T14:05:59.035Z,8.97
2023-04-18T14:07:01.847Z,8.97
2023-04-18T14:08:04.283Z,8.97
2023-04-18T14:09:11.133Z,8.97
2023-04-18T14:10:15.074Z,8.98
2023-04-18T14:11:17.371Z,8.97
2023-04-18T14:12:19.979Z,8.97
2023-04-18T14:13:22.901Z,8.98
2023-04-18T14:14:25.145Z,8.98
2023-04-18T14:15:27.654Z,8.99
2023-04-18T14:16:32.572Z,8.99
2023-04-18T14:17:35.218Z,9.00
2023-04-18T14:18:38.899Z,9.00